Time;durP1;ratioP1;P1;durP2;ratioP2;P2;SDS_P1;SDS_P2;PMS_P1;PMS_P2;Temp;Humidity;BMP_temperature;BMP_pressure;BME280_temperature;BME280_humidity;BME280_pressure;Samples;Min_cycle;Max_cycle;Signal;HPM_P1;HPM_P2
2021/12/29 00:00:33;;;;;;;7.53;2.03;;;;;;;-145.69;100.00;71336.72;5067074;28;20190;-76
2021/12/29 00:03:01;;;;;;;9.30;1.57;;;;;;;-145.69;100.00;71340.72;5068442;28;20222;-76
2021/12/29 00:05:29;;;;;;;15.43;1.90;;;;;;;-145.69;100.00;71346.69;5074222;28;20606;-76
2021/12/29 00:07:57;;;;;;;7.37;1.47;;;;;;;-145.69;100.00;71346.69;5068813;28;20218;-75
2021/12/29 00:10:24;;;;;;;8.17;1.23;;;;;;;-145.69;100.00;71350.66;5072244;28;20203;-76
2021/12/29 00:12:52;;;;;;;6.70;1.33;;;;;;;-145.69;100.00;71350.66;5060286;28;20196;-76
2021/12/29 00:15:21;;;;;;;11.60;1.73;;;;;;;-145.69;100.00;71334.75;5040981;28;20200;-76
2021/12/29 00:17:48;;;;;;;9.77;1.40;;;;;;;-145.69;100.00;71334.75;5049722;28;20799;-76
2021/12/29 00:20:19;;;;;;;11.47;1.57;;;;;;;-145.69;100.00;71342.69;5056718;28;20554;-75
2021/12/29 00:22:46;;;;;;;12.53;1.97;;;;;;;-145.69;100.00;71348.66;5060159;28;20222;-75
2021/12/29 00:25:14;;;;;;;6.30;1.47;;;;;;;-145.69;100.00;71342.69;5059841;28;20202;-75
2021/12/29 00:27:41;;;;;;;10.63;1.33;;;;;;;-145.69;100.00;71338.72;5068472;28;20607;-76
2021/12/29 00:30:10;;;;;;;10.07;1.90;;;;;;;-145.69;100.00;71350.66;5067172;28;20198;-75
2021/12/29 00:32:36;;;;;;;9.27;1.20;;;;;;;-145.69;100.00;71332.75;5050987;28;20195;-76
2021/12/29 00:35:04;;;;;;;8.13;1.33;;;;;;;-145.69;100.00;71340.72;5061511;28;20206;-76
2021/12/29 00:37:30;;;;;;;4.87;1.03;;;;;;;-145.69;100.00;71344.69;5055584;28;20192;-76
2021/12/29 00:39:57;;;;;;;9.70;1.30;;;;;;;-145.69;100.00;71342.69;5066583;28;20192;-76
2021/12/29 00:42:25;;;;;;;7.97;1.80;;;;;;;-145.69;100.00;71360.59;5054685;28;20223;-76
2021/12/29 00:44:51;;;;;;;8.20;1.27;;;;;;;-145.69;100.00;71358.63;5040512;28;20200;-75
2021/12/29 00:47:18;;;;;;;5.90;1.43;;;;;;;-145.69;100.00;71350.66;5055273;28;20203;-75
2021/12/29 00:49:46;;;;;;;9.83;1.50;;;;;;;-145.69;100.00;71370.56;5060595;28;20856;-76
2021/12/29 00:52:13;;;;;;;6.67;1.10;;;;;;;-145.69;100.00;71362.59;5054554;28;20270;-76
2021/12/29 00:54:42;;;;;;;3.70;1.10;;;;;;;-145.69;100.00;71364.59;5055810;28;20226;-75
2021/12/29 00:57:09;;;;;;;6.27;1.10;;;;;;;-145.69;100.00;71374.53;5055135;28;20199;-75
2021/12/29 00:59:36;;;;;;;7.93;1.10;;;;;;;-145.69;100.00;71378.50;5045671;28;20204;-75
2021/12/29 01:02:03;;;;;;;7.07;1.30;;;;;;;-145.69;100.00;71380.50;5056899;28;20195;-75
2021/12/29 01:04:30;;;;;;;7.20;1.17;;;;;;;-145.69;100.00;71376.53;5069750;28;20246;-76
2021/12/29 01:06:56;;;;;;;10.47;1.50;;;;;;;-145.69;100.00;71372.53;5066990;28;20207;-76
2021/12/29 01:09:23;;;;;;;9.97;1.13;;;;;;;-145.69;100.00;71386.47;5046010;28;20196;-76
2021/12/29 01:11:50;;;;;;;10.57;1.40;;;;;;;-145.69;100.00;71396.44;5061431;28;20241;-77
2021/12/29 01:14:22;;;;;;;9.60;1.37;;;;;;;-145.69;100.00;71398.41;5054237;28;20629;-77
2021/12/29 01:16:50;;;;;;;2.07;1.00;;;;;;;-145.69;100.00;71406.38;5043581;28;20254;-76
2021/12/29 01:19:19;;;;;;;6.73;1.30;;;;;;;-145.69;100.00;71410.34;5053626;28;20191;-76
2021/12/29 01:21:48;;;;;;;10.23;1.83;;;;;;;-145.69;100.00;71426.28;5043678;28;20727;-76
2021/12/29 01:24:15;;;;;;;8.93;1.23;;;;;;;-145.69;100.00;71434.22;5054128;28;20285;-76
2021/12/29 01:26:43;;;;;;;9.33;1.30;;;;;;;-145.69;100.00;71430.25;5055314;28;20651;-76
2021/12/29 01:29:10;;;;;;;8.03;1.30;;;;;;;-145.69;100.00;71428.25;5061960;28;20191;-75
2021/12/29 01:31:36;;;;;;;15.77;1.40;;;;;;;-145.69;100.00;71430.25;5066541;28;20256;-76
2021/12/29 01:34:05;;;;;;;6.77;1.17;;;;;;;-145.69;100.00;71432.25;5054157;28;20207;-76
2021/12/29 01:36:32;;;;;;;9.93;1.40;;;;;;;-145.69;100.00;71450.16;5054325;28;20290;-76
2021/12/29 01:38:59;;;;;;;7.83;1.37;;;;;;;-145.69;100.00;71458.09;5054755;28;20734;-76
2021/12/29 01:41:25;;;;;;;11.87;1.50;;;;;;;-145.69;100.00;71458.09;5054292;28;20253;-76
2021/12/29 01:43:52;;;;;;;5.23;1.20;;;;;;;-145.69;100.00;71448.16;5062508;28;20218;-76
2021/12/29 01:46:19;;;;;;;8.00;1.30;;;;;;;-145.69;100.00;71450.16;5058894;28;20220;-76
2021/12/29 01:48:46;;;;;;;7.20;1.60;;;;;;;-145.69;100.00;71460.09;5051424;28;20196;-76
2021/12/29 01:51:17;;;;;;;4.83;1.00;;;;;;;-145.69;100.00;71454.13;5054163;28;20250;-76
2021/12/29 01:53:49;;;;;;;8.73;1.10;;;;;;;-145.69;100.00;71448.16;5054356;28;20195;-76
2021/12/29 01:56:17;;;;;;;3.53;0.97;;;;;;;-145.69;100.00;71450.16;5072182;28;20658;-76
2021/12/29 01:58:43;;;;;;;6.00;1.20;;;;;;;-145.69;100.00;71462.09;5062377;28;20673;-76
2021/12/29 02:01:10;;;;;;;6.30;0.90;;;;;;;-145.69;100.00;71476.03;5059568;28;20191;-76
2021/12/29 02:03:36;;;;;;;6.10;1.13;;;;;;;-145.69;100.00;71478.00;5058087;28;20228;-76
2021/12/29 02:06:03;;;;;;;6.63;0.97;;;;;;;-145.69;100.00;71485.97;5053429;28;20191;-76
2021/12/29 02:08:32;;;;;;;6.13;1.00;;;;;;;-145.69;100.00;71499.91;5043113;28;20195;-76
2021/12/29 02:11:00;;;;;;;7.87;1.50;;;;;;;-145.69;100.00;71493.94;5049017;28;20223;-76
2021/12/29 02:13:28;;;;;;;5.53;1.27;;;;;;;-145.69;100.00;71501.88;5064092;28;20245;-76
2021/12/29 02:15:55;;;;;;;3.73;1.10;;;;;;;-145.69;100.00;71503.88;5053613;28;20231;-77
2021/12/29 02:18:21;;;;;;;6.90;1.37;;;;;;;-145.69;100.00;71499.91;5044790;28;20261;-76
2021/12/29 02:20:53;;;;;;;4.03;1.00;;;;;;;-145.69;100.00;71509.84;5033487;28;20200;-76
2021/12/29 02:23:26;;;;;;;4.63;1.23;;;;;;;-145.69;100.00;71509.84;5050572;28;20226;-76
2021/12/29 02:25:55;;;;;;;7.30;1.53;;;;;;;-145.69;100.00;71511.84;5053057;28;20679;-76
2021/12/29 02:28:26;;;;;;;7.20;1.00;;;;;;;-145.69;100.00;71517.81;5051942;28;20662;-76
2021/12/29 02:30:55;;;;;;;9.10;1.20;;;;;;;-145.69;100.00;71529.75;5053372;28;20203;-76
2021/12/29 02:33:23;;;;;;;7.63;1.17;;;;;;;-145.69;100.00;71529.75;5047017;28;20203;-76
2021/12/29 02:35:51;;;;;;;3.53;1.00;;;;;;;-145.69;100.00;71525.78;5053573;28;20197;-77
2021/12/29 02:38:25;;;;;;;4.13;0.93;;;;;;;-145.69;100.00;71521.78;5052897;28;20558;-77
2021/12/29 02:40:54;;;;;;;6.57;1.10;;;;;;;-145.69;100.00;71527.75;5053208;28;20203;-77
2021/12/29 02:43:22;;;;;;;8.23;1.20;;;;;;;-145.69;100.00;71535.72;5051062;28;20235;-76
2021/12/29 02:45:58;;;;;;;4.37;1.27;;;;;;;-145.69;100.00;71545.66;5049662;28;20199;-76
2021/12/29 02:48:25;;;;;;;9.40;1.57;;;;;;;-145.69;100.00;71541.69;5063077;28;20186;-76
2021/12/29 02:50:55;;;;;;;3.83;1.00;;;;;;;-145.69;100.00;71547.66;5058829;28;20238;-76
2021/12/29 02:53:22;;;;;;;10.57;1.10;;;;;;;-145.69;100.00;71543.69;5050131;28;20639;-76
2021/12/29 02:55:48;;;;;;;5.57;0.80;;;;;;;-145.69;100.00;71537.72;5053694;28;20400;-76
2021/12/29 02:58:15;;;;;;;6.80;0.93;;;;;;;-145.69;100.00;71545.66;5059954;28;20200;-77
2021/12/29 03:00:41;;;;;;;5.27;0.77;;;;;;;-145.69;100.00;71545.66;5057981;28;20244;-77
2021/12/29 03:03:15;;;;;;;6.33;1.10;;;;;;;-145.69;100.00;71545.66;5059040;28;20625;-77
2021/12/29 03:05:42;;;;;;;4.93;1.30;;;;;;;-145.69;100.00;71563.56;5060574;28;20324;-76
2021/12/29 03:08:09;;;;;;;3.37;1.00;;;;;;;-145.69;100.00;71549.66;5055867;28;20245;-77
2021/12/29 03:10:36;;;;;;;5.93;0.90;;;;;;;-145.69;100.00;71563.56;5062562;28;20194;-76
2021/12/29 03:13:02;;;;;;;7.20;0.87;;;;;;;-145.69;100.00;71569.53;5073041;28;20210;-77
2021/12/29 03:15:29;;;;;;;4.73;0.93;;;;;;;-145.69;100.00;71567.56;5053846;28;20199;-77
2021/12/29 03:17:55;;;;;;;6.40;0.83;;;;;;;-145.69;100.00;71563.56;5054731;28;20195;-77
2021/12/29 03:20:22;;;;;;;4.67;0.90;;;;;;;-145.69;100.00;71569.53;5053558;28;20547;-77
2021/12/29 03:22:48;;;;;;;3.20;0.87;;;;;;;-145.69;100.00;71581.50;5055892;28;20191;-77
2021/12/29 03:25:16;;;;;;;6.90;0.73;;;;;;;-145.69;100.00;71589.44;5060159;28;20195;-77
2021/12/29 03:27:42;;;;;;;3.90;0.80;;;;;;;-145.69;100.00;71597.41;5071053;28;20195;-76
2021/12/29 03:30:09;;;;;;;10.63;1.30;;;;;;;-145.69;100.00;71597.41;5065822;28;20439;-77
2021/12/29 03:32:41;;;;;;;2.27;0.90;;;;;;;-145.69;100.00;71597.41;5056936;28;20229;-76
2021/12/29 03:35:09;;;;;;;5.73;0.90;;;;;;;-145.69;100.00;71585.47;5068380;28;20195;-77
2021/12/29 03:37:35;;;;;;;3.80;1.00;;;;;;;-145.69;100.00;71579.50;5075046;28;20209;-77
2021/12/29 03:40:02;;;;;;;6.50;0.93;;;;;;;-145.69;100.00;71579.50;5074627;28;20260;-77
2021/12/29 03:42:29;;;;;;;3.23;0.90;;;;;;;-145.69;100.00;71577.50;5074227;28;20248;-76
2021/12/29 03:44:56;;;;;;;4.80;0.90;;;;;;;-145.69;100.00;71579.50;5057062;28;20219;-76
2021/12/29 03:47:22;;;;;;;2.07;0.70;;;;;;;-145.69;100.00;71577.50;5062895;28;20654;-76
2021/12/29 03:49:49;;;;;;;6.63;0.90;;;;;;;-145.69;100.00;71573.53;5060985;28;20245;-77
2021/12/29 03:52:15;;;;;;;6.90;0.60;;;;;;;-145.69;100.00;71577.50;5067922;28;20227;-77
2021/12/29 03:54:42;;;;;;;3.20;0.90;;;;;;;-145.69;100.00;71583.47;5056267;28;20192;-77
2021/12/29 03:57:08;;;;;;;5.27;0.90;;;;;;;-145.69;100.00;71583.47;5072830;28;20198;-77
2021/12/29 03:59:36;;;;;;;1.40;0.70;;;;;;;-145.69;100.00;71581.50;5058433;28;20628;-77
2021/12/29 04:02:03;;;;;;;3.90;0.90;;;;;;;-145.69;100.00;71585.47;5063361;28;20245;-77
2021/12/29 04:04:30;;;;;;;4.47;0.83;;;;;;;-145.69;100.00;71579.50;5055840;28;20231;-77
2021/12/29 04:06:57;;;;;;;2.07;0.80;;;;;;;-145.69;100.00;71583.47;5058128;28;20227;-77
2021/12/29 04:09:23;;;;;;;2.77;0.93;;;;;;;-145.69;100.00;71583.47;5056569;28;20605;-78
2021/12/29 04:11:50;;;;;;;9.73;0.90;;;;;;;-145.69;100.00;71583.47;5059098;28;20191;-77
2021/12/29 04:14:17;;;;;;;1.60;0.77;;;;;;;-145.69;100.00;71557.59;5054285;28;20266;-77
2021/12/29 04:16:46;;;;;;;5.80;0.80;;;;;;;-145.69;100.00;71569.53;5050178;28;20536;-77
2021/12/29 04:19:28;;;;;;;4.97;0.90;;;;;;;-145.69;100.00;71573.53;5068816;28;20191;-77
2021/12/29 04:21:56;;;;;;;6.40;0.83;;;;;;;-145.69;100.00;71569.53;5056011;28;20196;-77
2021/12/29 04:24:23;;;;;;;3.93;0.80;;;;;;;-145.69;100.00;71585.47;5057221;28;20222;-77
2021/12/29 04:26:49;;;;;;;5.23;1.00;;;;;;;-145.69;100.00;71597.41;5054994;28;20290;-77
2021/12/29 04:29:16;;;;;;;4.90;0.80;;;;;;;-145.69;100.00;71595.41;5064330;28;20221;-77
2021/12/29 04:31:45;;;;;;;5.03;0.80;;;;;;;-145.69;100.00;71601.38;5075668;28;20199;-76
2021/12/29 04:34:12;;;;;;;7.80;1.93;;;;;;;-145.69;100.00;71601.38;5072585;28;20665;-77
2021/12/29 04:36:38;;;;;;;6.03;0.80;;;;;;;-145.69;100.00;71615.31;5055500;28;20223;-77
2021/12/29 04:39:06;;;;;;;4.90;0.60;;;;;;;-145.69;100.00;71613.31;5055639;28;20597;-77
2021/12/29 04:41:33;;;;;;;4.67;0.90;;;;;;;-145.69;100.00;71619.28;5069938;28;20202;-77
2021/12/29 04:43:59;;;;;;;5.17;0.70;;;;;;;-145.69;100.00;71625.25;5058554;28;20223;-77
2021/12/29 04:46:36;;;;;;;9.47;1.00;;;;;;;-145.69;100.00;71627.25;5055372;28;20196;-77
2021/12/29 04:49:04;;;;;;;6.90;0.70;;;;;;;-145.69;100.00;71629.25;5057052;28;20536;-77
2021/12/29 04:51:35;;;;;;;3.93;0.90;;;;;;;-145.69;100.00;71625.25;5039129;28;20238;-77
2021/12/29 04:54:02;;;;;;;9.93;0.83;;;;;;;-145.69;100.00;71617.31;5067307;28;20269;-77
2021/12/29 04:56:29;;;;;;;1.20;0.70;;;;;;;-145.69;100.00;71635.22;5055425;28;20609;-77
2021/12/29 04:58:55;;;;;;;3.57;0.90;;;;;;;-145.69;100.00;71639.19;5062660;28;20576;-77
2021/12/29 05:01:22;;;;;;;8.23;0.90;;;;;;;-145.69;100.00;71637.19;5073109;28;20734;-77
2021/12/29 05:03:48;;;;;;;6.00;0.90;;;;;;;-145.69;100.00;71635.22;5054531;28;20224;-77
2021/12/29 05:09:00;;;;;;;3.67;1.00;;;;;;;-145.69;100.00;71647.16;5073730;28;20311;-77
2021/12/29 05:11:26;;;;;;;1.00;0.70;;;;;;;-145.69;100.00;71635.22;5068990;28;20650;-77
2021/12/29 05:13:53;;;;;;;3.67;0.70;;;;;;;-145.69;100.00;71639.19;5057424;28;20650;-77
2021/12/29 05:16:19;;;;;;;1.00;0.73;;;;;;;-145.69;100.00;71643.19;5055292;28;20310;-76
2021/12/29 05:18:46;;;;;;;2.17;0.80;;;;;;;-145.69;100.00;71647.16;5055169;28;20277;-77
2021/12/29 05:21:13;;;;;;;0.90;0.40;;;;;;;-145.69;100.00;71641.19;5054896;28;20203;-77
2021/12/29 05:23:40;;;;;;;5.00;1.00;;;;;;;-145.69;100.00;71633.22;5071191;28;20438;-77
2021/12/29 05:26:07;;;;;;;4.67;0.93;;;;;;;-145.69;100.00;71643.19;5054986;28;20245;-76
2021/12/29 05:28:33;;;;;;;2.23;0.80;;;;;;;-145.69;100.00;71639.19;5053733;28;20253;-76
2021/12/29 05:31:00;;;;;;;3.07;0.90;;;;;;;-145.69;100.00;71645.16;5055704;28;20262;-76
2021/12/29 05:33:26;;;;;;;11.80;0.90;;;;;;;-145.69;100.00;71651.13;5054693;28;20250;-77
2021/12/29 05:35:53;;;;;;;2.83;0.63;;;;;;;-145.69;100.00;71653.13;5058000;28;20198;-76
2021/12/29 05:38:19;;;;;;;2.50;0.87;;;;;;;-145.69;100.00;71645.16;5054467;28;20195;-76
2021/12/29 05:40:50;;;;;;;1.10;0.60;;;;;;;-145.69;100.00;71651.13;5054518;28;20261;-77
2021/12/29 05:43:17;;;;;;;4.17;1.23;;;;;;;-145.69;100.00;71659.09;5053461;28;20286;-77
2021/12/29 05:45:43;;;;;;;5.00;1.03;;;;;;;-145.69;100.00;71673.03;5055405;28;20555;-77
2021/12/29 05:48:10;;;;;;;5.37;1.03;;;;;;;-145.69;100.00;71657.09;5065343;28;20200;-77
2021/12/29 05:50:36;;;;;;;2.00;0.50;;;;;;;-145.69;100.00;71657.09;5053846;28;20227;-76
2021/12/29 05:53:04;;;;;;;3.20;0.80;;;;;;;-145.69;100.00;71645.16;5053816;28;20658;-77
2021/12/29 05:55:30;;;;;;;3.10;0.70;;;;;;;-145.69;100.00;71645.16;5053872;28;20202;-76
2021/12/29 05:57:58;;;;;;;3.77;0.70;;;;;;;-145.69;100.00;71657.09;5052449;28;20203;-76
2021/12/29 06:00:27;;;;;;;1.80;0.80;;;;;;;-145.69;100.00;71661.09;5053601;28;20199;-77
2021/12/29 06:02:55;;;;;;;4.23;0.70;;;;;;;-145.69;100.00;71657.09;5035851;28;20207;-76
2021/12/29 06:05:23;;;;;;;2.80;0.50;;;;;;;-145.69;100.00;71653.13;5045452;28;20243;-76
2021/12/29 06:07:49;;;;;;;1.17;0.50;;;;;;;-145.69;100.00;71653.13;5054623;28;20359;-77
2021/12/29 06:10:16;;;;;;;2.77;0.80;;;;;;;-145.69;100.00;71665.06;5033974;28;20201;-76
2021/12/29 06:12:43;;;;;;;5.70;0.83;;;;;;;-145.69;100.00;71671.03;5049526;28;20207;-76
2021/12/29 06:15:11;;;;;;;6.63;1.20;;;;;;;-145.69;100.00;71671.03;5051623;28;20196;-77
2021/12/29 06:17:38;;;;;;;1.37;0.70;;;;;;;-145.69;100.00;71669.03;5063635;28;20198;-77
2021/12/29 06:20:07;;;;;;;2.77;0.63;;;;;;;-145.69;100.00;71673.03;5053329;28;20218;-77
2021/12/29 06:22:34;;;;;;;1.90;0.60;;;;;;;-145.69;100.00;71669.03;5053415;28;20659;-76
2021/12/29 06:25:00;;;;;;;1.73;0.60;;;;;;;-145.69;100.00;71669.03;5053180;28;20855;-77
2021/12/29 06:27:27;;;;;;;2.57;0.60;;;;;;;-145.69;100.00;71673.03;5055550;28;20262;-76
2021/12/29 06:29:54;;;;;;;6.17;1.10;;;;;;;-145.69;100.00;71673.03;5055159;28;20196;-77
2021/12/29 06:32:21;;;;;;;4.03;0.83;;;;;;;-145.69;100.00;71663.06;5058112;28;20199;-76
2021/12/29 06:34:48;;;;;;;1.00;0.67;;;;;;;-145.69;100.00;71661.09;5067197;28;20206;-76
2021/12/29 06:37:15;;;;;;;3.70;0.93;;;;;;;-145.69;100.00;71657.09;5053756;28;20195;-77
2021/12/29 06:39:43;;;;;;;1.10;0.77;;;;;;;-145.69;100.00;71657.09;5054783;28;20201;-76
2021/12/29 06:42:10;;;;;;;1.37;0.60;;;;;;;-145.69;100.00;71659.09;5055460;28;20253;-76
2021/12/29 06:44:38;;;;;;;3.27;0.90;;;;;;;-145.69;100.00;71671.03;5054037;28;20230;-76
2021/12/29 06:47:05;;;;;;;2.90;0.83;;;;;;;-145.69;100.00;71682.97;5035474;28;20204;-76
2021/12/29 06:49:33;;;;;;;2.37;0.93;;;;;;;-145.69;100.00;71675.00;5054817;28;20206;-76
2021/12/29 06:52:01;;;;;;;3.20;0.90;;;;;;;-145.69;100.00;71677.00;5063911;28;20218;-76
2021/12/29 06:54:28;;;;;;;1.40;0.90;;;;;;;-145.69;100.00;71675.00;5059362;28;20201;-77
2021/12/29 06:56:55;;;;;;;2.83;0.80;;;;;;;-145.69;100.00;71677.00;5056215;28;20203;-76
2021/12/29 06:59:22;;;;;;;1.57;0.90;;;;;;;-145.69;100.00;71682.97;5053522;28;20207;-76
2021/12/29 07:01:49;;;;;;;4.10;0.70;;;;;;;-145.69;100.00;71698.91;5054860;28;20601;-76
2021/12/29 07:04:15;;;;;;;2.83;0.87;;;;;;;-145.69;100.00;71704.88;5066702;28;20224;-77
2021/12/29 07:06:43;;;;;;;4.13;0.60;;;;;;;-145.69;100.00;71714.81;5056305;28;20190;-76
2021/12/29 07:09:10;;;;;;;1.47;0.60;;;;;;;-145.69;100.00;71712.81;5057239;28;20218;-76
2021/12/29 07:11:37;;;;;;;1.87;0.60;;;;;;;-145.69;100.00;71722.78;5057852;28;20257;-76
2021/12/29 07:14:04;;;;;;;3.67;0.63;;;;;;;-145.69;100.00;71722.78;5063476;28;20225;-76
2021/12/29 07:16:31;;;;;;;3.07;0.90;;;;;;;-145.69;100.00;71700.88;5054149;28;20203;-76
2021/12/29 07:18:58;;;;;;;2.17;0.77;;;;;;;-145.69;100.00;71702.88;5055008;28;20195;-76
2021/12/29 07:21:25;;;;;;;1.13;0.67;;;;;;;-145.69;100.00;71679.00;5058789;28;20194;-76
2021/12/29 07:23:54;;;;;;;1.50;0.90;;;;;;;-145.69;100.00;71675.00;5061405;28;20195;-76
2021/12/29 07:26:20;;;;;;;6.07;1.00;;;;;;;-145.69;100.00;71677.00;5053705;28;20226;-77
2021/12/29 07:28:47;;;;;;;2.03;0.50;;;;;;;-145.69;100.00;71661.09;5053874;28;20585;-76
2021/12/29 07:31:13;;;;;;;0.77;0.67;;;;;;;-145.69;100.00;71679.00;5052266;28;20204;-76
2021/12/29 07:33:40;;;;;;;2.93;0.63;;;;;;;-145.69;100.00;71686.97;5056931;28;20685;-76
2021/12/29 07:36:06;;;;;;;0.90;0.60;;;;;;;-145.69;100.00;71679.00;5054220;28;20200;-76
2021/12/29 07:38:33;;;;;;;6.53;0.70;;;;;;;-145.69;100.00;71677.00;5067562;28;20202;-76
2021/12/29 07:41:01;;;;;;;0.60;0.50;;;;;;;-145.69;100.00;71675.00;5072792;28;20195;-76
2021/12/29 07:43:27;;;;;;;5.77;0.60;;;;;;;-145.69;100.00;71680.97;5058696;28;20191;-76
2021/12/29 07:45:55;;;;;;;1.67;0.43;;;;;;;-145.69;100.00;71692.94;5051842;28;20223;-76
2021/12/29 07:48:26;;;;;;;2.50;1.50;;;;;;;-145.69;100.00;71694.91;5069386;28;20198;-76
2021/12/29 07:50:52;;;;;;;3.53;1.20;;;;;;;-145.69;100.00;71690.94;5057686;28;20251;-76
2021/12/29 07:53:19;;;;;;;3.00;1.30;;;;;;;-145.69;100.00;71696.91;5063203;28;20199;-77
2021/12/29 07:55:45;;;;;;;2.10;0.90;;;;;;;-145.69;100.00;71688.94;5065436;28;20195;-77
2021/12/29 07:58:13;;;;;;;1.27;0.77;;;;;;;-145.69;100.00;71694.91;5055139;28;20257;-76
2021/12/29 08:00:40;;;;;;;3.33;0.87;;;;;;;-145.69;100.00;71682.97;5064323;28;20215;-76
2021/12/29 08:03:06;;;;;;;2.20;0.50;;;;;;;-145.69;100.00;71677.00;5052262;28;20283;-76
2021/12/29 08:05:33;;;;;;;3.93;1.37;;;;;;;-145.69;100.00;71675.00;5053254;28;20223;-77
2021/12/29 08:07:59;;;;;;;1.37;0.60;;;;;;;-145.69;100.00;71677.00;5060059;28;20191;-76
2021/12/29 08:10:26;;;;;;;1.17;0.53;;;;;;;-145.69;100.00;71673.03;5050443;28;20192;-77
2021/12/29 08:12:52;;;;;;;3.07;0.73;;;;;;;-145.69;100.00;71673.03;5055040;28;20199;-76
2021/12/29 08:15:20;;;;;;;2.80;0.80;;;;;;;-145.69;100.00;71671.03;5049563;28;20262;-76
2021/12/29 08:17:46;;;;;;;1.37;0.73;;;;;;;-145.69;100.00;71682.97;5036372;28;20254;-76
2021/12/29 08:20:13;;;;;;;4.10;1.13;;;;;;;-145.69;100.00;71673.03;5054239;28;20253;-76
2021/12/29 08:22:39;;;;;;;2.20;0.90;;;;;;;-145.69;100.00;71684.97;5056208;28;20237;-76
2021/12/29 08:25:07;;;;;;;1.23;0.77;;;;;;;-145.69;100.00;71680.97;5054770;28;20223;-76
2021/12/29 08:27:34;;;;;;;3.47;1.03;;;;;;;-145.69;100.00;71684.97;5056821;28;20222;-76
2021/12/29 08:30:01;;;;;;;2.00;1.10;;;;;;;-145.69;100.00;71684.97;5050929;28;20195;-77
2021/12/29 08:32:29;;;;;;;4.60;0.80;;;;;;;-145.69;100.00;71686.97;5054522;28;20202;-76
2021/12/29 08:34:56;;;;;;;2.90;0.93;;;;;;;-145.69;100.00;71680.97;5070819;28;20195;-76
2021/12/29 08:37:22;;;;;;;3.47;0.70;;;;;;;-145.69;100.00;71680.97;5051788;28;20195;-77
2021/12/29 08:39:49;;;;;;;2.57;0.87;;;;;;;-145.69;100.00;71677.00;5055891;28;20597;-77
2021/12/29 08:42:15;;;;;;;3.67;0.73;;;;;;;-145.69;100.00;71669.03;5054543;28;20199;-76
2021/12/29 08:44:42;;;;;;;0.70;0.70;;;;;;;-145.69;100.00;71661.09;5051515;28;20199;-77
2021/12/29 08:47:09;;;;;;;1.80;0.90;;;;;;;-145.69;100.00;71661.09;5064773;28;20202;-79
2021/12/29 08:49:37;;;;;;;3.50;1.03;;;;;;;-145.69;100.00;71649.16;5055291;28;20196;-77
2021/12/29 08:52:04;;;;;;;4.77;0.90;;;;;;;-145.69;100.00;71645.16;5055279;28;20285;-77
2021/12/29 08:54:31;;;;;;;6.20;1.10;;;;;;;-145.69;100.00;71655.13;5055341;28;20276;-76
2021/12/29 08:56:57;;;;;;;5.87;1.40;;;;;;;-145.69;100.00;71657.09;5064761;28;20666;-76
2021/12/29 08:59:24;;;;;;;3.57;1.40;;;;;;;-145.69;100.00;71645.16;5059585;28;20342;-77
2021/12/29 09:01:50;;;;;;;4.43;1.40;;;;;;;-145.69;100.00;71643.19;5055882;28;20196;-77
2021/12/29 09:04:17;;;;;;;11.60;3.00;;;;;;;-145.69;100.00;71653.13;5055806;28;20269;-77
2021/12/29 09:06:44;;;;;;;6.37;1.67;;;;;;;-145.69;100.00;71647.16;5051130;28;20245;-76
2021/12/29 09:09:11;;;;;;;3.70;1.30;;;;;;;-145.69;100.00;71639.19;5055204;28;20203;-77
2021/12/29 09:11:37;;;;;;;3.37;1.37;;;;;;;-145.69;100.00;71633.22;5053391;28;20208;-76
2021/12/29 09:14:04;;;;;;;4.87;1.30;;;;;;;-145.69;100.00;71635.22;5053096;28;20203;-76
2021/12/29 09:16:30;;;;;;;2.40;1.17;;;;;;;-145.69;100.00;71633.22;5050753;28;20206;-75
2021/12/29 09:18:57;;;;;;;3.43;1.03;;;;;;;-145.69;100.00;71629.25;5053597;28;20719;-76
2021/12/29 09:21:26;;;;;;;4.30;1.07;;;;;;;-145.69;100.00;71621.28;5052713;28;20681;-76
2021/12/29 09:23:54;;;;;;;4.53;1.20;;;;;;;-145.69;100.00;71613.31;5043059;28;20283;-76
2021/12/29 09:26:20;;;;;;;2.33;1.10;;;;;;;-145.69;100.00;71609.34;5043978;28;20236;-76
2021/12/29 09:28:49;;;;;;;3.73;1.63;;;;;;;-145.69;100.00;71609.34;5054081;28;20199;-76
2021/12/29 09:31:16;;;;;;;3.23;1.90;;;;;;;-145.69;100.00;71589.44;5052810;28;20200;-76
2021/12/29 09:33:44;;;;;;;6.70;1.23;;;;;;;-145.69;100.00;71599.41;5052396;28;20191;-76
2021/12/29 09:36:10;;;;;;;2.70;0.90;;;;;;;-145.69;100.00;71595.41;5054975;28;20203;-76
2021/12/29 09:38:40;;;;;;;3.93;1.10;;;;;;;-145.69;100.00;71591.44;5053952;28;20195;-76
2021/12/29 09:41:11;;;;;;;3.73;0.90;;;;;;;-145.69;100.00;71581.50;5064686;28;20224;-76
2021/12/29 09:43:39;;;;;;;5.83;1.10;;;;;;;-145.69;100.00;71587.47;5034295;28;20212;-76
2021/12/29 09:46:06;;;;;;;4.70;1.20;;;;;;;-145.69;100.00;71585.47;5065943;28;20371;-76
2021/12/29 09:48:33;;;;;;;7.87;1.07;;;;;;;-145.69;100.00;71571.53;5056607;28;20188;-76
2021/12/29 09:51:00;;;;;;;5.07;1.37;;;;;;;-145.69;100.00;71571.53;5053715;28;20223;-75
2021/12/29 09:53:27;;;;;;;5.27;0.90;;;;;;;-145.69;100.00;71565.56;5058410;28;20188;-76
2021/12/29 09:55:54;;;;;;;5.07;1.20;;;;;;;-145.69;100.00;71551.63;5059204;28;20199;-76
2021/12/29 09:58:22;;;;;;;2.60;0.80;;;;;;;-145.69;100.00;71543.69;5061045;28;20199;-76
2021/12/29 10:00:51;;;;;;;4.40;0.90;;;;;;;-145.69;100.00;71555.63;5051379;28;20207;-76
2021/12/29 10:03:20;;;;;;;4.03;1.07;;;;;;;-145.69;100.00;71557.59;5052317;28;20199;-75
2021/12/29 10:05:49;;;;;;;5.80;1.23;;;;;;;-145.69;100.00;71555.63;5057738;28;20219;-76
2021/12/29 10:08:19;;;;;;;4.87;1.43;;;;;;;-145.69;100.00;71551.63;5052359;28;20196;-76
2021/12/29 10:10:54;;;;;;;6.47;1.13;;;;;;;-145.69;100.00;71523.78;5050294;28;20187;-76
2021/12/29 10:13:23;;;;;;;7.40;1.37;;;;;;;-145.69;100.00;71527.75;5046612;28;20656;-76
2021/12/29 10:15:53;;;;;;;9.67;1.50;;;;;;;-145.69;100.00;71559.59;5050294;28;20249;-76
2021/12/29 10:18:22;;;;;;;5.47;1.30;;;;;;;-145.69;100.00;71561.59;5056882;28;20191;-76
2021/12/29 10:20:51;;;;;;;12.57;1.40;;;;;;;-145.69;100.00;71569.53;5052026;28;20202;-76
2021/12/29 10:23:21;;;;;;;4.43;1.13;;;;;;;-145.69;100.00;71571.53;5051875;28;20194;-76
2021/12/29 10:25:48;;;;;;;5.07;1.20;;;;;;;-145.69;100.00;71577.50;5035591;28;20228;-76
2021/12/29 10:28:25;;;;;;;11.07;1.60;;;;;;;-145.69;100.00;71577.50;5052851;28;20199;-76
2021/12/29 10:30:57;;;;;;;7.57;1.30;;;;;;;-145.69;100.00;71577.50;5053298;28;20574;-76
2021/12/29 10:33:24;;;;;;;9.43;1.40;;;;;;;-145.69;100.00;71583.47;5050228;28;20663;-76
2021/12/29 10:35:50;;;;;;;8.80;1.70;;;;;;;-145.69;100.00;71569.53;5050092;28;20528;-76
2021/12/29 10:38:20;;;;;;;4.63;1.67;;;;;;;-145.69;100.00;71569.53;5050959;28;20191;-76
2021/12/29 10:40:48;;;;;;;6.10;1.23;;;;;;;-145.69;100.00;71555.63;5061640;28;20194;-76
2021/12/29 10:43:15;;;;;;;9.50;1.83;;;;;;;-145.69;100.00;71559.59;5053132;28;20203;-76
2021/12/29 10:45:47;;;;;;;11.33;1.77;;;;;;;-145.69;100.00;71545.66;5060101;28;20222;-76
2021/12/29 10:48:22;;;;;;;11.87;2.20;;;;;;;-145.69;100.00;71537.72;5065825;28;20235;-77
2021/12/29 10:50:57;;;;;;;6.37;1.13;;;;;;;-145.69;100.00;71537.72;5051554;28;20222;-76
2021/12/29 10:53:25;;;;;;;10.87;1.40;;;;;;;-145.69;100.00;71525.78;5065148;28;20643;-76
2021/12/29 10:55:51;;;;;;;6.07;1.40;;;;;;;-145.69;100.00;71537.72;5055602;28;20199;-75
2021/12/29 10:58:20;;;;;;;8.70;1.90;;;;;;;-145.69;100.00;71521.78;5062344;28;20199;-77
2021/12/29 11:00:57;;;;;;;13.60;1.60;;;;;;;-145.69;100.00;71529.75;5051448;28;20200;-77
2021/12/29 11:03:25;;;;;;;4.30;1.30;;;;;;;-145.69;100.00;71529.75;5052145;28;20199;-76
2021/12/29 11:05:58;;;;;;;11.33;1.90;;;;;;;-145.69;100.00;71521.78;5049203;28;20560;-76
2021/12/29 11:08:25;;;;;;;13.47;2.00;;;;;;;-145.69;100.00;71515.81;5048816;28;20348;-76
2021/12/29 11:10:54;;;;;;;5.47;1.70;;;;;;;-145.69;100.00;71505.88;5051085;28;20673;-76
2021/12/29 11:13:25;;;;;;;10.30;1.70;;;;;;;-145.69;100.00;71507.84;5050553;28;20196;-76